createdAt,value
2023-02-12T00:02:03.037Z,14.73
2023-02-12T00:04:29.686Z,17.13
2023-02-12T00:06:56.245Z,16.30
2023-02-12T00:09:22.803Z,15.18
2023-02-12T00:11:49.368Z,16.95
2023-02-12T00:14:15.929Z,15.57
2023-02-12T00:16:42.496Z,16.83
2023-02-12T00:19:09.403Z,16.30
2023-02-12T00:21:37.280Z,18.05
2023-02-12T00:24:03.995Z,16.27
2023-02-12T00:26:30.759Z,16.10
2023-02-12T00:28:57.415Z,15.48
2023-02-12T00:31:27.269Z,15.20
2023-02-12T00:33:54.313Z,14.70
2023-02-12T00:36:24.229Z,14.85
2023-02-12T00:38:55.355Z,16.40
2023-02-12T00:43:49.514Z,17.02
2023-02-12T00:46:16.436Z,13.70
2023-02-12T00:48:43.501Z,15.20
2023-02-12T00:51:10.304Z,17.25
2023-02-12T00:53:37.545Z,20.23
2023-02-12T00:56:04.939Z,21.50
2023-02-12T00:58:31.697Z,17.65
2023-02-12T01:00:58.247Z,19.23
2023-02-12T01:03:25.260Z,17.05
2023-02-12T01:05:52.711Z,18.35
2023-02-12T01:08:19.651Z,17.83
2023-02-12T01:10:54.224Z,18.15
2023-02-12T01:13:20.919Z,17.05
2023-02-12T01:15:47.479Z,16.58
2023-02-12T01:18:16.212Z,15.73
2023-02-12T01:20:42.868Z,17.88
2023-02-12T01:23:09.419Z,17.90
2023-02-12T01:25:37.704Z,16.85
2023-02-12T01:28:04.586Z,16.23
2023-02-12T01:30:31.139Z,16.30
2023-02-12T01:32:57.672Z,16.83
2023-02-12T01:35:24.305Z,16.95
2023-02-12T01:37:50.968Z,15.98
2023-02-12T01:40:18.353Z,15.05
2023-02-12T01:42:44.945Z,16.17
2023-02-12T01:45:14.504Z,16.15
2023-02-12T01:47:43.501Z,15.77
2023-02-12T01:50:20.454Z,16.58
2023-02-12T01:52:52.105Z,15.88
2023-02-12T01:55:19.538Z,14.98
2023-02-12T01:57:48.370Z,16.38
2023-02-12T02:00:22.222Z,16.88
2023-02-12T02:02:57.025Z,14.68
2023-02-12T02:05:31.701Z,15.40
2023-02-12T02:07:58.544Z,16.27
2023-02-12T02:10:25.125Z,16.15
2023-02-12T02:13:12.082Z,16.27
2023-02-12T02:15:42.014Z,16.23
2023-02-12T02:18:36.877Z,14.77
2023-02-12T02:21:14.636Z,16.20
2023-02-12T02:24:06.046Z,16.35
2023-02-12T02:26:54.515Z,15.63
2023-02-12T02:29:40.950Z,14.35
2023-02-12T02:32:19.030Z,15.30
2023-02-12T02:34:59.008Z,14.52
2023-02-12T02:37:28.800Z,13.35
2023-02-12T02:40:01.847Z,16.33
2023-02-12T02:42:35.196Z,14.82
2023-02-12T02:45:12.504Z,15.23
2023-02-12T02:47:46.924Z,16.10
2023-02-12T02:50:17.310Z,20.33
2023-02-12T02:53:00.306Z,18.10
2023-02-12T02:55:32.513Z,16.83
2023-02-12T02:58:09.063Z,16.08
2023-02-12T03:00:47.281Z,15.38
2023-02-12T03:03:22.249Z,15.57
2023-02-12T03:05:53.909Z,14.57
2023-02-12T03:08:28.312Z,15.50
2023-02-12T03:10:59.876Z,14.88
2023-02-12T03:13:34.166Z,14.63
2023-02-12T03:16:08.235Z,14.65
2023-02-12T03:18:42.937Z,15.70
2023-02-12T03:21:15.397Z,15.23
2023-02-12T03:23:56.130Z,14.95
2023-02-12T03:26:32.693Z,14.10
2023-02-12T03:28:59.315Z,14.02
2023-02-12T03:31:56.271Z,15.07
2023-02-12T03:34:35.709Z,14.35
2023-02-12T03:37:11.084Z,12.70
2023-02-12T03:39:40.581Z,14.30
2023-02-12T03:42:17.580Z,15.25
2023-02-12T03:44:53.636Z,14.20
2023-02-12T03:47:46.409Z,13.80
2023-02-12T03:50:33.034Z,12.00
2023-02-12T03:52:59.637Z,13.25
2023-02-12T03:55:26.600Z,13.63
2023-02-12T03:58:00.827Z,15.43
2023-02-12T04:00:28.112Z,12.88
2023-02-12T04:02:55.146Z,12.38
2023-02-12T04:05:27.798Z,12.82
2023-02-12T04:07:56.942Z,13.70
2023-02-12T04:10:46.141Z,12.50
2023-02-12T04:13:28.638Z,15.00
2023-02-12T04:16:05.305Z,13.57
2023-02-12T04:18:40.946Z,13.75
2023-02-12T04:21:10.382Z,13.38
2023-02-12T04:23:42.603Z,12.55
2023-02-12T04:26:12.086Z,14.23
2023-02-12T04:29:20.589Z,13.05
2023-02-12T04:31:56.281Z,15.20
2023-02-12T04:34:41.554Z,12.95
2023-02-12T04:37:16.563Z,14.10
2023-02-12T04:39:44.747Z,11.88
2023-02-12T04:42:11.676Z,14.05
2023-02-12T04:44:40.874Z,13.13
2023-02-12T04:47:08.027Z,12.88
2023-02-12T04:49:34.559Z,13.35
2023-02-12T04:52:01.279Z,14.05
2023-02-12T04:54:27.871Z,14.35
2023-02-12T04:56:54.417Z,12.23
2023-02-12T04:59:21.287Z,13.38
2023-02-12T05:01:47.999Z,12.93
2023-02-12T05:04:16.372Z,12.38
2023-02-12T05:06:43.942Z,13.70
2023-02-12T05:09:16.716Z,13.50
2023-02-12T05:11:43.588Z,13.77
2023-02-12T05:14:10.692Z,14.05
2023-02-12T05:16:37.505Z,13.13
2023-02-12T05:19:04.251Z,12.55
2023-02-12T05:21:30.839Z,13.73
2023-02-12T05:23:57.458Z,12.82
2023-02-12T05:26:24.031Z,11.30
2023-02-12T05:28:50.588Z,12.63
2023-02-12T05:31:21.305Z,12.13
2023-02-12T05:36:18.624Z,11.82
2023-02-12T05:38:45.236Z,12.43
2023-02-12T05:41:14.693Z,13.55
2023-02-12T05:43:41.866Z,13.23
2023-02-12T05:46:08.878Z,13.18
2023-02-12T05:48:36.482Z,11.82
2023-02-12T05:51:14.095Z,14.88
2023-02-12T05:53:41.732Z,13.18
2023-02-12T05:56:41.751Z,13.40
2023-02-12T05:59:14.124Z,14.30
2023-02-12T06:01:43.656Z,13.63
2023-02-12T06:04:19.818Z,12.75
2023-02-12T06:06:46.754Z,13.82
2023-02-12T06:09:14.544Z,12.32
2023-02-12T06:11:41.159Z,14.15
2023-02-12T06:14:11.047Z,13.98
2023-02-12T06:16:38.014Z,13.65
2023-02-12T06:19:06.072Z,14.05
2023-02-12T06:21:33.581Z,12.18
2023-02-12T06:24:00.809Z,12.95
2023-02-12T06:26:27.593Z,13.15
2023-02-12T06:28:54.191Z,12.80
2023-02-12T06:31:22.609Z,12.65
2023-02-12T06:33:50.147Z,12.77
2023-02-12T06:36:16.947Z,12.10
2023-02-12T06:38:43.527Z,12.82
2023-02-12T06:41:10.372Z,13.13
2023-02-12T06:43:37.514Z,13.40
2023-02-12T06:46:05.148Z,13.00
2023-02-12T06:48:32.318Z,13.85
2023-02-12T06:51:11.302Z,12.10
2023-02-12T06:53:38.163Z,12.68
2023-02-12T06:56:06.553Z,12.52
2023-02-12T06:58:33.184Z,12.48
2023-02-12T07:01:21.615Z,11.02
2023-02-12T07:03:50.738Z,12.20
2023-02-12T07:06:17.891Z,10.95
2023-02-12T07:08:45.020Z,12.75
2023-02-12T07:11:12.111Z,11.15
2023-02-12T07:13:41.279Z,9.77
2023-02-12T07:16:10.779Z,10.05
2023-02-12T07:18:38.105Z,12.32
2023-02-12T07:21:05.918Z,11.50
2023-02-12T07:23:33.069Z,10.27
2023-02-12T07:26:04.969Z,10.23
2023-02-12T07:28:35.156Z,10.40
2023-02-12T07:31:10.667Z,9.97
2023-02-12T07:33:38.360Z,11.05
2023-02-12T07:36:06.984Z,9.20
2023-02-12T07:38:36.118Z,11.90
2023-02-12T07:41:12.525Z,10.90
2023-02-12T07:43:43.525Z,11.38
2023-02-12T07:46:31.569Z,10.95
2023-02-12T07:49:00.217Z,11.90
2023-02-12T07:51:27.701Z,11.07
2023-02-12T07:53:55.564Z,11.65
2023-02-12T07:56:31.932Z,11.15
2023-02-12T07:59:00.944Z,11.23
2023-02-12T08:01:30.849Z,11.00
2023-02-12T08:04:05.525Z,11.30
2023-02-12T08:06:36.081Z,10.70
2023-02-12T08:09:07.123Z,11.02
2023-02-12T08:11:34.281Z,10.98
2023-02-12T08:14:01.837Z,12.52
2023-02-12T08:16:29.754Z,12.98
2023-02-12T08:19:07.194Z,12.07
2023-02-12T08:21:41.378Z,12.55
2023-02-12T08:24:08.129Z,12.32
2023-02-12T08:26:37.134Z,11.90
2023-02-12T08:29:05.421Z,12.65
2023-02-12T08:31:38.186Z,12.43
2023-02-12T08:34:05.473Z,10.82
2023-02-12T08:36:40.177Z,11.52
2023-02-12T08:39:08.043Z,12.75
2023-02-12T08:41:35.283Z,12.18
2023-02-12T08:44:03.898Z,11.20
2023-02-12T08:46:33.532Z,13.13
2023-02-12T08:49:02.991Z,12.20
2023-02-12T08:51:31.944Z,12.68
2023-02-12T08:54:01.528Z,11.63
2023-02-12T08:56:30.118Z,12.52
2023-02-12T08:58:57.922Z,11.73
2023-02-12T09:01:26.737Z,13.43
2023-02-12T09:03:53.860Z,13.25
2023-02-12T09:06:22.802Z,12.88
2023-02-12T09:08:49.969Z,11.90
2023-02-12T09:11:19.469Z,12.02
2023-02-12T09:13:47.492Z,12.95
2023-02-12T09:16:14.837Z,12.48
2023-02-12T09:18:42.063Z,11.68
2023-02-12T09:21:12.510Z,11.88
2023-02-12T09:23:39.812Z,13.57
2023-02-12T09:26:09.426Z,14.30
2023-02-12T09:28:37.304Z,13.48
2023-02-12T09:31:31.410Z,14.20
2023-02-12T09:34:00.248Z,11.90
2023-02-12T09:36:27.238Z,12.02
2023-02-12T09:38:54.364Z,10.50
2023-02-12T09:41:50.010Z,12.13
2023-02-12T09:44:25.365Z,10.15
2023-02-12T09:47:07.040Z,11.55
2023-02-12T09:49:42.440Z,11.40
2023-02-12T09:52:19.266Z,11.88
2023-02-12T09:54:47.921Z,12.68
2023-02-12T09:57:25.124Z,13.25
2023-02-12T09:59:58.361Z,12.07
2023-02-12T10:02:25.014Z,12.02
2023-02-12T10:05:01.313Z,10.85
2023-02-12T10:07:43.930Z,11.88
2023-02-12T10:10:22.763Z,11.93
2023-02-12T10:13:04.598Z,10.02
2023-02-12T10:15:41.638Z,10.30
2023-02-12T10:18:46.064Z,10.23
2023-02-12T10:21:31.298Z,9.65
2023-02-12T10:24:23.745Z,9.13
2023-02-12T10:26:54.679Z,10.18
2023-02-12T10:29:24.719Z,9.52
2023-02-12T10:34:36.985Z,11.57
2023-02-12T10:37:11.691Z,9.70
2023-02-12T10:39:44.874Z,10.48
2023-02-12T10:42:26.049Z,11.50
2023-02-12T10:44:52.808Z,9.52
2023-02-12T10:47:22.255Z,10.02
2023-02-12T10:50:01.479Z,8.98
2023-02-12T10:52:43.764Z,8.18
2023-02-12T10:55:33.102Z,7.70
2023-02-12T10:58:02.194Z,8.20
2023-02-12T11:00:33.831Z,8.65
2023-02-12T11:03:12.652Z,8.52
2023-02-12T11:05:42.019Z,6.55
2023-02-12T11:08:29.154Z,7.18
2023-02-12T11:11:05.031Z,8.02
2023-02-12T11:13:32.056Z,7.72
2023-02-12T11:15:59.199Z,7.55
2023-02-12T11:18:34.550Z,7.15
2023-02-12T11:21:12.283Z,8.30
2023-02-12T11:23:41.580Z,7.88
2023-02-12T11:26:20.183Z,9.18
2023-02-12T11:29:23.672Z,9.45
2023-02-12T11:32:02.005Z,9.07
2023-02-12T11:34:29.878Z,7.95
2023-02-12T11:36:57.628Z,8.43
2023-02-12T11:39:35.759Z,8.63
2023-02-12T11:42:15.377Z,7.80
2023-02-12T11:44:51.527Z,9.50
2023-02-12T11:47:30.617Z,8.30
2023-02-12T11:50:11.728Z,7.93
2023-02-12T11:52:40.942Z,8.88
2023-02-12T11:55:26.591Z,7.82
2023-02-12T11:58:01.064Z,8.75
2023-02-12T12:00:30.394Z,7.80
2023-02-12T12:03:17.256Z,8.10
2023-02-12T12:05:51.010Z,7.68
2023-02-12T12:08:24.187Z,8.30
2023-02-12T12:11:01.970Z,8.05
2023-02-12T12:13:35.215Z,8.18
2023-02-12T12:16:32.101Z,7.53
2023-02-12T12:19:33.459Z,7.47
2023-02-12T12:22:11.370Z,7.53
2023-02-12T12:24:46.594Z,8.65
2023-02-12T12:27:45.022Z,7.13
2023-02-12T12:30:24.053Z,6.95
2023-02-12T12:32:54.201Z,6.10
2023-02-12T12:35:32.404Z,7.10
2023-02-12T12:38:24.200Z,7.00
2023-02-12T12:41:05.325Z,10.02
2023-02-12T12:44:04.184Z,7.53
2023-02-12T12:46:36.756Z,8.07
2023-02-12T12:49:32.141Z,8.40
2023-02-12T12:52:20.536Z,9.32
2023-02-12T12:55:02.421Z,8.95
2023-02-12T12:58:07.702Z,8.52
2023-02-12T13:00:53.180Z,9.10
2023-02-12T13:03:38.567Z,8.60
2023-02-12T13:06:31.918Z,7.85
2023-02-12T13:09:10.563Z,8.95
2023-02-12T13:11:50.681Z,10.63
2023-02-12T13:14:39.045Z,12.98
2023-02-12T13:17:25.833Z,14.77
2023-02-12T13:20:12.292Z,9.05
2023-02-12T13:22:52.769Z,9.10
2023-02-12T13:25:30.898Z,8.20
2023-02-12T13:28:00.354Z,8.65
2023-02-12T13:30:32.463Z,7.53
2023-02-12T13:33:17.317Z,7.28
2023-02-12T13:35:47.907Z,8.95
2023-02-12T13:38:21.224Z,8.88
2023-02-12T13:40:49.797Z,7.05
2023-02-12T13:43:34.212Z,7.18
2023-02-12T13:46:13.351Z,9.05
2023-02-12T13:48:43.742Z,8.35
2023-02-12T13:51:32.251Z,8.00
2023-02-12T13:54:33.357Z,8.40
2023-02-12T13:57:02.586Z,8.35
2023-02-12T13:59:32.220Z,8.00
2023-02-12T14:02:00.202Z,8.30
2023-02-12T14:04:47.834Z,8.20
2023-02-12T14:07:16.452Z,7.20
2023-02-12T14:09:52.550Z,8.77
2023-02-12T14:12:25.127Z,6.40
2023-02-12T14:14:55.396Z,6.72
2023-02-12T14:17:28.172Z,8.00
2023-02-12T14:20:14.515Z,7.80
2023-02-12T14:22:44.041Z,8.60
2023-02-12T14:25:16.445Z,9.15
2023-02-12T14:27:54.378Z,8.82
2023-02-12T14:30:40.137Z,8.70
2023-02-12T14:33:06.987Z,7.50
2023-02-12T14:35:39.204Z,7.93
2023-02-12T14:38:11.758Z,7.60
2023-02-12T14:40:42.225Z,8.43
2023-02-12T14:43:27.706Z,7.88
2023-02-12T14:45:57.305Z,8.18
2023-02-12T14:48:46.802Z,6.85
2023-02-12T14:51:29.134Z,6.60
2023-02-12T14:53:56.657Z,6.97
2023-02-12T14:56:24.206Z,8.70
2023-02-12T14:58:58.096Z,8.68
2023-02-12T15:01:35.942Z,7.93
2023-02-12T15:04:14.831Z,8.38
2023-02-12T15:06:49.136Z,8.00
2023-02-12T15:09:25.642Z,6.63
2023-02-12T15:12:10.974Z,8.00
2023-02-12T15:14:43.280Z,8.35
2023-02-12T15:17:40.029Z,7.57
2023-02-12T15:20:31.584Z,6.10
2023-02-12T15:22:58.299Z,6.55
2023-02-12T15:25:30.704Z,6.72
2023-02-12T15:27:58.318Z,6.93
2023-02-12T15:30:27.982Z,6.82
2023-02-12T15:33:01.193Z,6.63
2023-02-12T15:35:39.759Z,6.18
2023-02-12T15:38:08.035Z,5.85
2023-02-12T15:40:35.156Z,6.45
2023-02-12T15:43:06.608Z,6.20
2023-02-12T15:45:36.966Z,5.82
2023-02-12T15:48:09.775Z,6.35
2023-02-12T15:50:47.700Z,6.50
2023-02-12T15:53:14.821Z,7.00
2023-02-12T15:55:45.056Z,6.45
2023-02-12T15:58:27.112Z,6.83
2023-02-12T16:00:59.487Z,6.50
2023-02-12T16:03:32.048Z,6.50
2023-02-12T16:06:18.482Z,6.07
2023-02-12T16:08:48.807Z,7.05
2023-02-12T16:11:19.965Z,7.13
2023-02-12T16:16:20.957Z,6.38
2023-02-12T16:19:08.690Z,6.25
2023-02-12T16:21:38.844Z,7.07
2023-02-12T16:24:19.477Z,6.93
2023-02-12T16:26:47.746Z,7.10
2023-02-12T16:29:17.706Z,6.70
2023-02-12T16:31:57.858Z,6.60
2023-02-12T16:34:42.686Z,6.57
2023-02-12T16:37:35.527Z,6.00
2023-02-12T16:40:15.412Z,5.00
2023-02-12T16:42:48.163Z,5.43
2023-02-12T16:45:27.508Z,5.38
2023-02-12T16:48:00.928Z,6.38
2023-02-12T16:50:34.099Z,6.18
2023-02-12T16:53:06.659Z,6.70
2023-02-12T16:55:33.858Z,5.63
2023-02-12T16:58:00.963Z,5.38
2023-02-12T17:00:27.552Z,5.10
2023-02-12T17:02:55.969Z,5.93
2023-02-12T17:05:23.437Z,5.75
2023-02-12T17:07:50.498Z,5.97
2023-02-12T17:10:17.662Z,5.78
2023-02-12T17:12:52.561Z,5.80
2023-02-12T17:15:30.368Z,4.97
2023-02-12T17:17:57.041Z,5.55
2023-02-12T17:20:23.584Z,5.15
2023-02-12T17:22:54.074Z,5.15
2023-02-12T17:25:21.146Z,4.70
2023-02-12T17:27:47.721Z,4.80
2023-02-12T17:30:20.882Z,4.82
2023-02-12T17:32:49.620Z,5.35
2023-02-12T17:35:16.777Z,5.22
2023-02-12T17:37:43.381Z,4.93
2023-02-12T17:40:11.714Z,4.93
2023-02-12T17:42:38.355Z,4.97
2023-02-12T17:45:05.365Z,4.47
2023-02-12T17:47:32.863Z,4.68
2023-02-12T17:50:01.566Z,4.55
2023-02-12T17:52:28.185Z,5.07
2023-02-12T17:54:54.716Z,4.57
2023-02-12T17:57:21.278Z,4.25
2023-02-12T17:59:47.887Z,4.95
2023-02-12T18:02:14.437Z,5.20
2023-02-12T18:04:41.191Z,5.53
2023-02-12T18:07:08.017Z,5.30
2023-02-12T18:09:36.628Z,5.00
2023-02-12T18:12:03.191Z,5.00
2023-02-12T18:14:30.168Z,4.50
2023-02-12T18:16:57.004Z,5.25
2023-02-12T18:19:26.296Z,6.13
2023-02-12T18:21:52.908Z,5.80
2023-02-12T18:24:19.501Z,5.10
2023-02-12T18:26:46.318Z,5.05
2023-02-12T18:29:13.125Z,5.65
2023-02-12T18:31:39.821Z,5.03
2023-02-12T18:34:07.307Z,5.30
2023-02-12T18:36:34.871Z,5.47
2023-02-12T18:39:02.227Z,4.47
2023-02-12T18:41:31.989Z,4.50
2023-02-12T18:43:59.755Z,5.30
2023-02-12T18:46:29.161Z,4.50
2023-02-12T18:48:56.514Z,5.38
2023-02-12T18:51:25.876Z,5.43
2023-02-12T18:54:05.901Z,4.65
2023-02-12T18:59:04.791Z,4.45
2023-02-12T19:01:32.826Z,4.68
2023-02-12T19:04:04.769Z,5.00
2023-02-12T19:06:33.133Z,4.90
2023-02-12T19:09:02.527Z,4.72
2023-02-12T19:11:30.823Z,4.10
2023-02-12T19:13:57.922Z,5.20
2023-02-12T19:16:25.638Z,4.88
2023-02-12T19:18:59.366Z,5.50
2023-02-12T19:21:26.393Z,5.43
2023-02-12T19:24:00.226Z,5.35
2023-02-12T19:26:28.964Z,5.53
2023-02-12T19:28:57.044Z,6.18
2023-02-12T19:31:27.370Z,5.93
2023-02-12T19:33:59.107Z,5.82
2023-02-12T19:36:27.381Z,5.13
2023-02-12T19:38:54.437Z,6.22
2023-02-12T19:41:23.852Z,5.32
2023-02-12T19:43:58.477Z,5.40
2023-02-12T19:46:27.573Z,6.05
2023-02-12T19:48:59.853Z,5.88
2023-02-12T19:51:29.443Z,5.47
2023-02-12T19:53:59.885Z,6.05
2023-02-12T19:56:26.543Z,5.82
2023-02-12T19:58:55.326Z,6.03
2023-02-12T20:01:21.994Z,6.18
2023-02-12T20:03:49.277Z,7.47
2023-02-12T20:06:25.800Z,6.10
2023-02-12T20:08:52.759Z,6.80
2023-02-12T20:11:24.687Z,6.68
2023-02-12T20:13:51.924Z,6.30
2023-02-12T20:16:21.482Z,7.63
2023-02-12T20:18:50.823Z,7.53
2023-02-12T20:21:22.293Z,7.03
2023-02-12T20:23:49.164Z,7.65
2023-02-12T20:26:17.500Z,7.72
2023-02-12T20:28:44.298Z,7.53
2023-02-12T20:31:26.615Z,7.95
2023-02-12T20:33:55.925Z,6.88
2023-02-12T20:36:23.537Z,6.22
2023-02-12T20:38:58.616Z,7.07
2023-02-12T20:41:26.901Z,7.28
2023-02-12T20:43:54.081Z,7.30
2023-02-12T20:46:23.411Z,6.68
2023-02-12T20:48:50.326Z,7.03
2023-02-12T20:51:19.807Z,7.18
2023-02-12T20:53:47.148Z,7.90
2023-02-12T20:56:19.712Z,7.78
2023-02-12T20:58:47.445Z,8.68
2023-02-12T21:01:17.665Z,8.65
2023-02-12T21:03:45.300Z,10.07
2023-02-12T21:06:12.174Z,9.07
2023-02-12T21:08:40.442Z,9.30
2023-02-12T21:11:12.899Z,9.60
2023-02-12T21:13:39.441Z,9.93
2023-02-12T21:16:15.667Z,8.35
2023-02-12T21:18:42.257Z,9.30
2023-02-12T21:21:13.218Z,10.52
2023-02-12T21:23:40.365Z,9.45
2023-02-12T21:26:10.428Z,9.02
2023-02-12T21:28:37.589Z,9.23
2023-02-12T21:31:11.502Z,10.77
2023-02-12T21:33:39.535Z,10.23
2023-02-12T21:36:08.604Z,10.32
2023-02-12T21:38:40.267Z,9.98
2023-02-12T21:41:13.818Z,9.65
2023-02-12T21:43:43.325Z,10.85
2023-02-12T21:46:10.516Z,10.57
2023-02-12T21:48:39.343Z,10.70
2023-02-12T21:51:06.733Z,10.65
2023-02-12T21:53:33.537Z,11.07
2023-02-12T21:56:03.918Z,11.02
2023-02-12T21:58:30.611Z,10.57
2023-02-12T22:00:57.501Z,9.43
2023-02-12T22:03:24.293Z,10.00
2023-02-12T22:05:50.973Z,12.18
2023-02-12T22:08:17.542Z,9.23
2023-02-12T22:10:44.098Z,11.10
2023-02-12T22:13:10.717Z,11.02
2023-02-12T22:15:37.283Z,10.65
2023-02-12T22:18:03.964Z,10.68
2023-02-12T22:20:30.795Z,9.30
2023-02-12T22:22:58.109Z,11.20
2023-02-12T22:25:24.782Z,11.05
2023-02-12T22:27:51.631Z,10.52
2023-02-12T22:30:18.326Z,9.88
2023-02-12T22:32:45.229Z,9.50
2023-02-12T22:35:11.896Z,10.25
2023-02-12T22:37:42.048Z,9.10
2023-02-12T22:40:09.901Z,10.90
2023-02-12T22:42:36.693Z,11.80
2023-02-12T22:45:03.540Z,10.85
2023-02-12T22:47:32.094Z,10.27
2023-02-12T22:50:00.232Z,11.57
2023-02-12T22:52:27.811Z,9.73
2023-02-12T22:54:54.742Z,11.13
2023-02-12T22:57:21.386Z,10.68
2023-02-12T22:59:49.236Z,9.15
2023-02-12T23:02:16.103Z,9.80
2023-02-12T23:04:42.743Z,9.73
2023-02-12T23:07:09.327Z,10.75
2023-02-12T23:09:35.965Z,11.13
2023-02-12T23:12:07.438Z,10.50
2023-02-12T23:14:36.157Z,9.50
2023-02-12T23:17:04.368Z,10.13
2023-02-12T23:19:31.041Z,10.27
2023-02-12T23:21:57.921Z,11.60
2023-02-12T23:24:25.766Z,11.18
2023-02-12T23:26:53.554Z,11.27
2023-02-12T23:29:20.166Z,11.00
2023-02-12T23:31:46.850Z,9.55
2023-02-12T23:34:13.681Z,10.88
2023-02-12T23:36:40.329Z,11.32
2023-02-12T23:39:07.132Z,10.48
2023-02-12T23:41:33.737Z,10.40
2023-02-12T23:44:00.414Z,11.32
2023-02-12T23:46:26.962Z,10.52
2023-02-12T23:48:53.602Z,9.57
2023-02-12T23:51:20.140Z,9.55
2023-02-12T23:53:46.698Z,9.23
2023-02-12T23:56:13.308Z,9.20
2023-02-12T23:58:39.842Z,9.07
